createdAt,value
2019-01-10T00:00:44.790Z,91.81
2019-01-10T00:01:44.766Z,91.29
2019-01-10T00:02:44.753Z,91.71
2019-01-10T00:03:44.745Z,91.71
2019-01-10T00:04:44.776Z,91.39
2019-01-10T00:05:44.721Z,92.02
2019-01-10T00:06:44.711Z,91.81
2019-01-10T00:07:44.700Z,91.75
2019-01-10T00:19:19.964Z,91.39
2019-01-10T00:19:39.147Z,91.18
2019-01-10T00:23:09.304Z,90.97
2019-01-10T00:24:08.008Z,90.81
2019-01-10T00:25:07.997Z,91.18
2019-01-10T00:26:08.008Z,91.39
2019-01-10T00:27:07.978Z,91.91
2019-01-10T00:28:07.966Z,91.81
2019-01-10T00:29:07.959Z,92.02
2019-01-10T00:30:07.942Z,91.91
2019-01-10T00:31:07.933Z,91.81
2019-01-10T00:32:07.941Z,91.64
2019-01-10T00:33:07.909Z,91.85
2019-01-10T00:34:07.901Z,91.75
2019-01-10T00:35:07.889Z,91.75
2019-01-10T00:36:07.891Z,92.16
2019-01-10T00:37:07.877Z,91.85
2019-01-10T00:38:07.858Z,91.33
2019-01-10T00:39:07.857Z,91.29
2019-01-10T00:40:07.849Z,91.12
2019-01-10T00:41:07.824Z,92.16
2019-01-10T00:42:07.812Z,91.39
2019-01-10T00:43:07.805Z,92.06
2019-01-10T00:44:07.803Z,91.22
2019-01-10T00:45:07.781Z,91.85
2019-01-10T00:46:07.773Z,91.85
2019-01-10T00:47:07.771Z,91.85
2019-01-10T00:48:07.746Z,92.16
2019-01-10T00:49:07.754Z,91.75
2019-01-10T00:50:07.726Z,92.16
2019-01-10T00:51:07.732Z,91.85
2019-01-10T00:52:07.702Z,92.06
2019-01-10T00:53:07.694Z,91.75
2019-01-10T00:54:07.712Z,91.85
2019-01-10T00:55:07.677Z,91.96
2019-01-10T00:56:07.660Z,91.96
2019-01-10T00:57:07.648Z,91.75
2019-01-10T00:58:07.636Z,91.64
2019-01-10T00:59:07.628Z,91.96
2019-01-10T01:00:07.628Z,91.64
2019-01-10T01:01:07.612Z,93.00
2019-01-10T01:02:07.618Z,91.96
2019-01-10T01:03:07.584Z,92.27
2019-01-10T01:04:07.574Z,92.06
2019-01-10T01:05:07.562Z,92.06
2019-01-10T01:06:07.552Z,92.16
2019-01-10T01:07:07.548Z,91.75
2019-01-10T01:08:07.568Z,91.96
2019-01-10T01:09:07.518Z,91.79
2019-01-10T01:10:07.507Z,91.96
2019-01-10T01:11:07.496Z,92.00
2019-01-10T01:12:07.486Z,92.31
2019-01-10T01:13:07.479Z,92.83
2019-01-10T01:14:07.488Z,92.58
2019-01-10T01:15:07.451Z,93.04
2019-01-10T01:16:07.447Z,92.63
2019-01-10T01:17:07.430Z,93.15
2019-01-10T01:18:07.420Z,92.63
2019-01-10T01:19:07.414Z,92.94
2019-01-10T01:20:07.410Z,92.94
2019-01-10T01:21:07.387Z,92.63
2019-01-10T01:22:07.376Z,92.94
2019-01-10T01:23:07.366Z,93.29
2019-01-10T01:24:07.386Z,91.89
2019-01-10T01:25:07.352Z,92.52
2019-01-10T01:26:07.333Z,92.83
2019-01-10T01:27:07.329Z,92.41
2019-01-10T01:28:07.316Z,92.94
2019-01-10T01:29:07.300Z,92.94
2019-01-10T01:30:07.313Z,92.94
2019-01-10T01:31:07.282Z,92.00
2019-01-10T01:32:07.268Z,92.10
2019-01-10T01:33:07.258Z,92.10
2019-01-10T01:34:07.247Z,91.79
2019-01-10T01:35:07.235Z,91.89
2019-01-10T01:36:07.238Z,92.94
2019-01-10T01:37:07.231Z,92.73
2019-01-10T01:38:07.202Z,92.73
2019-01-10T01:39:07.193Z,92.83
2019-01-10T01:40:07.181Z,92.94
2019-01-10T01:41:07.169Z,92.41
2019-01-10T01:42:07.170Z,92.88
2019-01-10T01:43:07.803Z,92.98
2019-01-10T01:44:07.135Z,92.66
2019-01-10T01:45:07.126Z,93.19
2019-01-10T01:46:07.857Z,93.08
2019-01-10T01:47:07.106Z,92.98
2019-01-10T01:48:07.095Z,93.19
2019-01-10T01:49:07.087Z,92.56
2019-01-10T01:50:07.071Z,93.33
2019-01-10T01:51:07.061Z,93.29
2019-01-10T01:52:07.062Z,93.29
2019-01-10T01:53:07.039Z,92.92
2019-01-10T01:54:07.029Z,92.92
2019-01-10T01:55:07.023Z,93.23
2019-01-10T01:56:07.059Z,93.23
2019-01-10T01:57:06.997Z,93.54
2019-01-10T01:58:06.983Z,93.23
2019-01-10T01:59:06.975Z,93.13
2019-01-10T02:00:06.962Z,93.02
2019-01-10T02:01:06.959Z,93.02
2019-01-10T02:02:06.953Z,93.33
2019-01-10T02:03:06.932Z,93.23
2019-01-10T02:04:06.919Z,93.54
2019-01-10T02:05:06.909Z,93.23
2019-01-10T02:06:06.897Z,93.33
2019-01-10T02:07:06.909Z,92.92
2019-01-10T02:08:06.879Z,93.54
2019-01-10T02:09:06.870Z,93.70
2019-01-10T02:10:06.854Z,94.01
2019-01-10T02:11:06.843Z,93.54
2019-01-10T02:12:06.832Z,93.80
2019-01-10T02:13:06.847Z,93.76
2019-01-10T02:14:06.816Z,94.11
2019-01-10T02:15:06.801Z,93.80
2019-01-10T02:16:06.789Z,93.48
2019-01-10T02:17:06.777Z,94.21
2019-01-10T02:18:06.769Z,93.59
2019-01-10T02:19:06.787Z,93.38
2019-01-10T02:20:06.755Z,93.48
2019-01-10T02:21:06.750Z,93.48
2019-01-10T02:22:06.723Z,93.48
2019-01-10T02:23:06.714Z,93.90
2019-01-10T02:24:06.702Z,93.70
2019-01-10T02:25:06.705Z,93.90
2019-01-10T02:26:06.682Z,93.80
2019-01-10T02:27:06.671Z,93.74
2019-01-10T02:28:06.670Z,93.70
2019-01-10T02:29:06.648Z,93.38
2019-01-10T02:30:06.648Z,93.38
2019-01-10T02:31:06.626Z,93.63
2019-01-10T02:32:06.620Z,93.80
2019-01-10T02:33:06.616Z,93.80
2019-01-10T02:34:06.595Z,93.38
2019-01-10T02:35:06.582Z,93.27
2019-01-10T02:36:06.576Z,94.15
2019-01-10T02:37:06.574Z,94.68
2019-01-10T02:38:06.556Z,94.57
2019-01-10T02:39:06.537Z,94.57
2019-01-10T02:40:06.553Z,94.26
2019-01-10T02:41:06.515Z,94.57
2019-01-10T02:42:06.506Z,94.78
2019-01-10T02:43:06.494Z,94.26
2019-01-10T02:44:06.489Z,94.68
2019-01-10T02:45:06.473Z,94.68
2019-01-10T02:46:06.475Z,94.57
2019-01-10T02:47:06.463Z,94.36
2019-01-10T02:48:06.451Z,94.36
2019-01-10T02:49:06.430Z,94.57
2019-01-10T02:50:06.425Z,94.57
2019-01-10T02:51:06.409Z,94.40
2019-01-10T02:52:06.397Z,94.68
2019-01-10T02:53:06.398Z,94.68
2019-01-10T02:54:06.387Z,94.46
2019-01-10T02:55:06.363Z,94.46
2019-01-10T02:56:06.357Z,94.36
2019-01-10T02:57:06.343Z,94.78
2019-01-10T02:58:06.333Z,94.89
2019-01-10T02:59:06.352Z,94.46
2019-01-10T03:00:06.309Z,94.30
2019-01-10T03:01:06.298Z,94.72
2019-01-10T03:02:06.294Z,94.68
2019-01-10T03:03:06.278Z,93.95
2019-01-10T03:04:06.265Z,94.26
2019-01-10T03:05:06.266Z,94.78
2019-01-10T03:06:06.243Z,94.78
2019-01-10T03:07:06.231Z,94.62
2019-01-10T03:08:06.226Z,94.62
2019-01-10T03:09:06.216Z,94.93
2019-01-10T03:10:06.211Z,94.51
2019-01-10T03:11:06.188Z,94.62
2019-01-10T03:12:06.180Z,94.51
2019-01-10T03:13:06.169Z,94.51
2019-01-10T03:14:06.157Z,94.62
2019-01-10T03:15:06.184Z,94.97
2019-01-10T03:16:06.142Z,95.18
2019-01-10T03:17:06.125Z,95.07
2019-01-10T03:18:06.113Z,95.39
2019-01-10T03:19:06.101Z,95.45
2019-01-10T03:20:06.090Z,95.18
2019-01-10T03:21:06.110Z,95.39
2019-01-10T03:22:06.077Z,95.07
2019-01-10T03:23:06.058Z,95.39
2019-01-10T03:24:06.048Z,95.39
2019-01-10T03:25:06.036Z,95.50
2019-01-10T03:26:06.027Z,95.70
2019-01-10T03:27:06.025Z,95.60
2019-01-10T03:28:06.007Z,94.97
2019-01-10T03:29:05.992Z,95.39
2019-01-10T03:30:05.989Z,95.29
2019-01-10T03:31:05.972Z,95.39
2019-01-10T03:32:05.972Z,95.50
2019-01-10T03:33:05.953Z,95.39
2019-01-10T03:34:05.942Z,95.18
2019-01-10T03:35:05.931Z,95.07
2019-01-10T03:36:05.917Z,95.60
2019-01-10T03:37:05.920Z,95.39
2019-01-10T03:38:05.893Z,95.96
2019-01-10T03:39:05.884Z,95.81
2019-01-10T03:40:05.873Z,95.81
2019-01-10T03:41:05.868Z,95.23
2019-01-10T03:42:05.876Z,95.81
2019-01-10T03:43:05.841Z,95.64
2019-01-10T03:44:05.845Z,95.33
2019-01-10T03:45:05.817Z,95.86
2019-01-10T03:46:05.808Z,95.54
2019-01-10T03:47:05.802Z,96.17
2019-01-10T03:48:05.785Z,96.06
2019-01-10T03:49:05.786Z,95.54
2019-01-10T03:50:05.766Z,95.75
2019-01-10T03:51:05.753Z,95.39
2019-01-10T03:52:05.742Z,95.33
2019-01-10T03:53:05.738Z,95.86
2019-01-10T03:54:05.735Z,95.64
2019-01-10T03:55:05.711Z,95.12
2019-01-10T03:56:05.696Z,95.64
2019-01-10T03:57:05.685Z,95.18
2019-01-10T03:58:05.677Z,95.23
2019-01-10T03:59:05.681Z,94.81
2019-01-10T04:00:05.672Z,94.91
2019-01-10T04:01:05.644Z,94.87
2019-01-10T04:02:05.633Z,95.33
2019-01-10T04:03:05.623Z,95.64
2019-01-10T04:04:05.611Z,95.54
2019-01-10T04:05:05.618Z,95.43
2019-01-10T04:06:05.590Z,95.54
2019-01-10T04:07:05.577Z,95.43
2019-01-10T04:08:05.566Z,96.06
2019-01-10T04:09:05.557Z,96.17
2019-01-10T04:10:05.564Z,95.96
2019-01-10T04:11:05.539Z,96.80
2019-01-10T04:12:05.536Z,96.80
2019-01-10T04:13:05.527Z,96.37
2019-01-10T04:14:05.501Z,96.80
2019-01-10T04:15:05.492Z,96.90
2019-01-10T04:16:05.479Z,96.48
2019-01-10T04:17:05.511Z,96.84
2019-01-10T04:18:05.458Z,96.94
2019-01-10T04:19:05.447Z,96.69
2019-01-10T04:20:05.434Z,96.42
2019-01-10T04:21:05.426Z,96.94
2019-01-10T04:22:05.428Z,96.53
2019-01-10T04:23:05.424Z,96.94
2019-01-10T04:24:05.393Z,96.90
2019-01-10T04:25:05.382Z,96.90
2019-01-10T04:26:05.370Z,96.80
2019-01-10T04:27:05.363Z,96.27
2019-01-10T04:28:05.375Z,96.48
2019-01-10T04:29:05.342Z,96.69
2019-01-10T04:30:05.328Z,96.69
2019-01-10T04:31:05.318Z,96.69
2019-01-10T04:32:05.309Z,96.48
2019-01-10T04:33:05.296Z,96.69
2019-01-10T04:34:05.322Z,96.69
2019-01-10T04:35:05.278Z,97.00
2019-01-10T04:36:05.263Z,96.17
2019-01-10T04:37:05.252Z,96.27
2019-01-10T04:38:05.242Z,95.54
2019-01-10T04:39:05.317Z,95.39
2019-01-10T04:40:12.274Z,95.18
2019-01-10T04:41:05.209Z,95.18
2019-01-10T04:42:05.196Z,94.76
2019-01-10T04:43:05.193Z,95.07
2019-01-10T04:44:07.272Z,94.45
2019-01-10T04:45:05.175Z,94.76
2019-01-10T04:46:05.208Z,94.24
2019-01-10T04:47:05.150Z,94.76
2019-01-10T04:48:05.135Z,94.66
2019-01-10T04:49:05.120Z,94.62
2019-01-10T04:50:05.120Z,94.45
2019-01-10T04:51:05.107Z,94.45
2019-01-10T04:52:05.103Z,94.13
2019-01-10T04:53:05.078Z,93.82
2019-01-10T04:54:05.067Z,93.82
2019-01-10T04:55:05.073Z,93.71
2019-01-10T04:56:05.045Z,94.03
2019-01-10T04:57:05.035Z,93.87
2019-01-10T04:58:05.029Z,93.97
2019-01-10T04:59:05.012Z,94.03
2019-01-10T05:00:05.035Z,93.82
2019-01-10T05:01:04.996Z,93.93
2019-01-10T05:02:04.978Z,93.93
2019-01-10T05:03:04.970Z,93.93
2019-01-10T05:04:04.959Z,93.82
2019-01-10T05:05:04.948Z,92.88
2019-01-10T05:06:04.971Z,93.82
2019-01-10T05:07:04.938Z,93.71
2019-01-10T05:08:04.915Z,93.30
2019-01-10T05:09:04.905Z,93.61
2019-01-10T05:10:04.899Z,93.51
2019-01-10T05:11:04.884Z,93.61
2019-01-10T05:12:04.887Z,93.30
2019-01-10T05:13:04.873Z,93.19
2019-01-10T05:14:04.848Z,93.51
2019-01-10T05:15:04.838Z,93.19
2019-01-10T05:16:04.834Z,93.19
2019-01-10T05:17:04.830Z,93.40
2019-01-10T05:18:04.807Z,93.93
2019-01-10T05:19:04.800Z,93.61
2019-01-10T05:20:04.815Z,93.34
2019-01-10T05:21:04.776Z,93.55
2019-01-10T05:22:04.787Z,93.30
2019-01-10T05:23:04.751Z,93.24
2019-01-10T05:24:04.741Z,93.19
2019-01-10T05:25:04.736Z,93.19
2019-01-10T05:26:04.720Z,93.71
2019-01-10T05:27:04.709Z,93.51
2019-01-10T05:28:04.740Z,93.44
2019-01-10T05:29:04.688Z,93.34
2019-01-10T05:30:04.678Z,93.44
2019-01-10T05:31:04.678Z,92.40
2019-01-10T05:32:04.655Z,93.02
2019-01-10T05:33:04.646Z,93.34
2019-01-10T05:34:04.658Z,92.77
2019-01-10T05:35:04.623Z,93.19
2019-01-10T05:36:04.615Z,93.24
2019-01-10T05:37:05.920Z,92.98
2019-01-10T05:38:04.589Z,92.77
2019-01-10T05:39:04.580Z,92.82
2019-01-10T05:40:04.582Z,93.02
2019-01-10T05:41:04.558Z,92.82
2019-01-10T05:42:04.546Z,93.55
2019-01-10T05:43:04.549Z,92.82
2019-01-10T05:44:04.561Z,92.82
2019-01-10T05:45:04.514Z,92.92
2019-01-10T05:46:04.505Z,92.61
2019-01-10T05:47:04.495Z,92.50
2019-01-10T05:48:04.482Z,92.50
2019-01-10T05:49:04.476Z,93.34
2019-01-10T05:50:04.473Z,92.71
2019-01-10T05:51:04.449Z,92.71
2019-01-10T05:52:04.439Z,92.61
2019-01-10T05:53:04.428Z,92.61
2019-01-10T05:54:04.417Z,92.29
2019-01-10T05:55:04.428Z,93.24
2019-01-10T05:56:04.394Z,93.24
2019-01-10T05:57:04.384Z,93.44
2019-01-10T05:58:04.373Z,93.02
2019-01-10T05:59:04.362Z,93.44
2019-01-10T06:00:04.363Z,93.55
2019-01-10T06:01:04.355Z,93.44
2019-01-10T06:02:04.329Z,93.55
2019-01-10T06:03:04.319Z,93.38
2019-01-10T06:04:04.310Z,92.96
2019-01-10T06:05:04.308Z,93.38
2019-01-10T06:06:04.299Z,93.24
2019-01-10T06:07:04.279Z,93.70
2019-01-10T06:08:04.271Z,93.49
2019-01-10T06:09:04.252Z,92.92
2019-01-10T06:10:04.243Z,93.49
2019-01-10T06:11:04.243Z,93.38
2019-01-10T06:12:04.225Z,94.01
2019-01-10T06:13:04.209Z,93.76
2019-01-10T06:14:04.203Z,93.49
2019-01-10T06:15:04.188Z,93.38
2019-01-10T06:16:04.202Z,93.07
2019-01-10T06:17:04.166Z,92.96
2019-01-10T06:18:04.155Z,92.92
2019-01-10T06:19:04.145Z,93.27
2019-01-10T06:20:04.139Z,92.86
2019-01-10T06:21:04.128Z,93.27
2019-01-10T06:22:04.124Z,93.17
2019-01-10T06:23:04.103Z,93.34
2019-01-10T06:24:04.092Z,93.59
2019-01-10T06:25:04.080Z,93.27
2019-01-10T06:26:04.076Z,93.07
2019-01-10T06:27:04.170Z,93.27
2019-01-10T06:28:04.070Z,93.27
2019-01-10T06:29:04.035Z,93.49
2019-01-10T06:30:04.025Z,93.07
2019-01-10T06:31:04.013Z,92.96
2019-01-10T06:32:04.007Z,93.27
2019-01-10T06:33:03.991Z,93.07
2019-01-10T06:34:03.999Z,93.17
2019-01-10T06:35:03.971Z,92.86
2019-01-10T06:36:03.962Z,92.86
2019-01-10T06:37:03.990Z,92.86
2019-01-10T06:38:03.943Z,93.11
2019-01-10T06:39:03.928Z,92.96
2019-01-10T06:40:03.915Z,93.11
2019-01-10T06:41:03.908Z,93.17
2019-01-10T06:42:03.894Z,92.90
2019-01-10T06:43:03.901Z,93.27
2019-01-10T06:44:03.882Z,93.27
2019-01-10T06:45:03.862Z,93.27
2019-01-10T06:46:03.851Z,92.54
2019-01-10T06:47:03.862Z,92.54
2019-01-10T06:48:03.829Z,92.44
2019-01-10T06:49:03.821Z,92.13
2019-01-10T06:50:03.853Z,92.27
2019-01-10T06:51:03.797Z,91.91
2019-01-10T06:52:03.793Z,93.27
2019-01-10T06:53:03.788Z,93.21
2019-01-10T06:54:03.763Z,93.49
2019-01-10T06:55:03.754Z,93.38
2019-01-10T06:56:03.747Z,93.32
2019-01-10T06:57:03.734Z,93.32
2019-01-10T06:58:03.750Z,93.63
2019-01-10T06:59:03.713Z,93.74
2019-01-10T07:00:03.700Z,93.21
2019-01-10T07:01:03.689Z,93.53
2019-01-10T07:02:03.691Z,93.63
2019-01-10T07:03:03.706Z,93.84
2019-01-10T07:04:03.662Z,93.01
2019-01-10T07:05:03.647Z,93.01
2019-01-10T07:06:03.737Z,93.32
2019-01-10T07:07:03.623Z,93.63
2019-01-10T07:08:03.616Z,93.84
2019-01-10T07:09:03.627Z,93.84
2019-01-10T07:10:03.604Z,94.16
2019-01-10T07:11:03.580Z,94.06
2019-01-10T07:12:03.571Z,93.84
2019-01-10T07:13:03.560Z,93.63
2019-01-10T07:14:03.550Z,93.63
2019-01-10T07:15:03.562Z,93.43
2019-01-10T07:16:03.559Z,93.21
2019-01-10T07:17:03.516Z,93.74
2019-01-10T07:18:03.510Z,93.01
2019-01-10T07:19:03.493Z,93.11
2019-01-10T07:20:03.484Z,92.86
2019-01-10T07:21:03.486Z,93.49
2019-01-10T07:22:03.485Z,93.07
2019-01-10T07:23:03.453Z,93.38
2019-01-10T07:24:03.444Z,93.63
2019-01-10T07:25:03.430Z,93.27
2019-01-10T07:26:03.420Z,92.44
2019-01-10T07:27:03.417Z,92.33
2019-01-10T07:28:03.413Z,92.54
2019-01-10T07:29:03.388Z,92.13
2019-01-10T07:30:03.376Z,92.65
2019-01-10T07:31:03.366Z,92.44
2019-01-10T07:32:03.354Z,92.13
2019-01-10T07:33:03.360Z,92.65
2019-01-10T07:34:03.337Z,92.54
2019-01-10T07:35:03.323Z,92.13
2019-01-10T07:36:03.310Z,92.33
2019-01-10T07:37:12.400Z,92.76
2019-01-10T07:38:04.302Z,92.65
2019-01-10T07:39:03.322Z,92.23
2019-01-10T07:40:03.276Z,92.13
2019-01-10T07:41:03.256Z,92.23
2019-01-10T07:42:03.245Z,91.91
2019-01-10T07:43:03.236Z,92.29
2019-01-10T07:44:03.235Z,92.40
2019-01-10T07:45:03.288Z,91.39
2019-01-10T07:46:03.212Z,91.77
2019-01-10T07:47:03.191Z,90.93
2019-01-10T07:48:03.182Z,91.24
2019-01-10T07:49:03.172Z,91.24
2019-01-10T07:50:03.173Z,91.98
2019-01-10T07:51:03.163Z,91.87
2019-01-10T07:52:03.138Z,91.77
2019-01-10T07:53:03.126Z,91.24
2019-01-10T07:54:03.116Z,90.51
2019-01-10T07:55:03.128Z,89.88
2019-01-10T07:56:03.094Z,90.30
2019-01-10T07:57:03.092Z,89.98
2019-01-10T07:58:03.073Z,91.03
2019-01-10T07:59:03.063Z,91.41
2019-01-10T08:00:03.052Z,90.58
2019-01-10T08:01:03.072Z,90.16
2019-01-10T08:02:03.029Z,90.16
2019-01-10T08:03:03.028Z,90.05
2019-01-10T08:04:03.007Z,89.84
2019-01-10T08:05:02.996Z,90.36
2019-01-10T08:06:04.673Z,90.58
2019-01-10T08:07:03.010Z,91.41
2019-01-10T08:08:02.964Z,90.58
2019-01-10T08:09:02.960Z,90.68
2019-01-10T08:10:02.943Z,90.58
2019-01-10T08:11:02.931Z,89.95
2019-01-10T08:12:02.919Z,90.53
2019-01-10T08:13:02.945Z,89.80
2019-01-10T08:14:02.899Z,89.95
2019-01-10T08:15:11.603Z,89.28
2019-01-10T08:16:03.875Z,89.48
2019-01-10T08:17:02.863Z,89.48
2019-01-10T08:18:02.856Z,89.17
2019-01-10T08:19:02.882Z,90.18
2019-01-10T08:20:02.860Z,89.59
2019-01-10T08:21:02.827Z,89.07
2019-01-10T08:22:02.810Z,88.86
2019-01-10T08:23:02.799Z,88.50
2019-01-10T08:24:02.791Z,89.13
2019-01-10T08:25:02.799Z,88.82
2019-01-10T08:26:02.767Z,89.34
2019-01-10T08:27:02.760Z,88.82
2019-01-10T08:28:02.761Z,88.82
2019-01-10T08:29:02.748Z,88.92
2019-01-10T08:30:02.725Z,88.40
2019-01-10T08:31:02.713Z,88.92
2019-01-10T08:32:04.098Z,88.88
2019-01-10T08:33:02.704Z,88.99
2019-01-10T08:34:02.687Z,89.03
2019-01-10T08:35:02.700Z,88.88
2019-01-10T08:36:02.659Z,88.67
2019-01-10T08:37:02.646Z,88.46
2019-01-10T08:38:02.638Z,88.78
2019-01-10T08:39:02.626Z,87.63
2019-01-10T08:40:02.622Z,88.57
2019-01-10T08:41:02.626Z,88.88
2019-01-10T08:42:02.591Z,89.20
2019-01-10T08:43:02.582Z,88.84
2019-01-10T08:44:02.573Z,88.57
2019-01-10T08:45:02.565Z,88.36
2019-01-10T08:46:02.551Z,87.90
2019-01-10T08:47:02.550Z,87.73
2019-01-10T08:48:02.527Z,87.07
2019-01-10T08:49:02.516Z,87.48
2019-01-10T08:50:02.506Z,87.21
2019-01-10T08:51:02.507Z,87.80
2019-01-10T08:52:02.489Z,87.17
2019-01-10T08:53:02.474Z,87.27
2019-01-10T08:54:02.470Z,86.33
2019-01-10T08:55:02.452Z,86.54
2019-01-10T08:56:02.472Z,86.75
2019-01-10T08:57:02.426Z,86.33
2019-01-10T08:58:02.428Z,86.54
2019-01-10T08:59:02.408Z,86.96
2019-01-10T09:00:02.397Z,87.38
2019-01-10T09:01:02.386Z,88.32
2019-01-10T09:02:02.385Z,87.80
2019-01-10T09:03:02.363Z,87.38
2019-01-10T09:04:02.363Z,86.54
2019-01-10T09:05:02.346Z,87.27
2019-01-10T09:06:08.061Z,86.75
2019-01-10T09:07:03.384Z,86.85
2019-01-10T09:08:02.310Z,87.69
2019-01-10T09:09:02.305Z,87.17
2019-01-10T09:10:02.295Z,86.44
2019-01-10T09:11:02.281Z,86.44
2019-01-10T09:12:02.263Z,87.07
2019-01-10T09:13:02.285Z,86.44
2019-01-10T09:14:02.244Z,86.65
2019-01-10T09:15:02.233Z,86.96
2019-01-10T09:16:02.236Z,86.65
2019-01-10T09:17:02.210Z,87.90
2019-01-10T09:18:02.210Z,87.17
2019-01-10T09:19:02.201Z,87.07
2019-01-10T09:20:02.180Z,87.27
2019-01-10T09:21:04.549Z,88.21
2019-01-10T09:22:02.160Z,87.17
2019-01-10T09:23:02.145Z,86.96
2019-01-10T09:24:02.149Z,86.85
2019-01-10T09:25:02.125Z,86.54
2019-01-10T09:26:02.113Z,86.44
2019-01-10T09:27:02.100Z,87.27
2019-01-10T09:28:02.098Z,86.75
2019-01-10T09:29:02.093Z,87.38
2019-01-10T09:30:02.081Z,88.53
2019-01-10T09:31:02.059Z,86.85
2019-01-10T09:32:02.046Z,87.27
2019-01-10T09:33:02.036Z,86.13
2019-01-10T09:34:02.033Z,86.85
2019-01-10T09:35:02.032Z,86.75
2019-01-10T09:36:02.021Z,86.96
2019-01-10T09:37:03.874Z,87.38
2019-01-10T09:38:01.981Z,87.27
2019-01-10T09:39:01.975Z,88.53
2019-01-10T09:40:01.996Z,87.07
2019-01-10T09:41:01.950Z,87.23
2019-01-10T09:42:01.939Z,86.75
2019-01-10T09:43:01.937Z,87.27
2019-01-10T09:44:01.929Z,87.17
2019-01-10T09:45:01.906Z,86.96
2019-01-10T09:46:01.926Z,86.33
2019-01-10T09:47:01.883Z,86.33
2019-01-10T09:48:01.872Z,88.17
2019-01-10T09:49:01.871Z,88.39
2019-01-10T09:50:01.852Z,87.76
2019-01-10T09:51:01.841Z,87.76
2019-01-10T09:52:01.841Z,86.51
2019-01-10T09:53:01.831Z,86.61
2019-01-10T09:54:01.812Z,85.67
2019-01-10T09:55:01.797Z,85.67
2019-01-10T09:56:01.787Z,85.25
2019-01-10T09:57:01.781Z,85.35
2019-01-10T09:58:01.777Z,86.65
2019-01-10T09:59:01.754Z,85.88
2019-01-10T10:00:01.742Z,85.56
2019-01-10T10:01:01.730Z,86.51
2019-01-10T10:02:01.731Z,86.29
2019-01-10T10:03:01.735Z,86.40
2019-01-10T10:04:01.756Z,86.40
2019-01-10T10:05:01.702Z,86.71
2019-01-10T10:06:07.678Z,86.92
2019-01-10T10:07:02.661Z,87.34
2019-01-10T10:08:01.657Z,87.02
2019-01-10T10:09:01.647Z,86.61
2019-01-10T10:10:01.652Z,87.09
2019-01-10T10:11:01.621Z,86.51
2019-01-10T10:12:01.609Z,87.19
2019-01-10T10:13:01.601Z,87.19
2019-01-10T10:14:01.623Z,86.57
2019-01-10T10:15:01.630Z,85.21
2019-01-10T10:16:01.571Z,85.35
2019-01-10T10:17:01.558Z,85.83
2019-01-10T10:18:01.545Z,86.57
2019-01-10T10:19:01.533Z,86.05
2019-01-10T10:20:01.554Z,85.73
2019-01-10T10:21:01.510Z,85.31
2019-01-10T10:22:01.512Z,85.46
2019-01-10T10:23:01.496Z,85.31
2019-01-10T10:24:01.477Z,85.21
2019-01-10T10:25:01.470Z,84.83
2019-01-10T10:26:01.469Z,85.63
2019-01-10T10:27:01.483Z,85.77
2019-01-10T10:28:01.447Z,85.83
2019-01-10T10:29:01.423Z,85.83
2019-01-10T10:30:01.413Z,85.11
2019-01-10T10:31:01.401Z,85.11
2019-01-10T10:32:01.389Z,85.42
2019-01-10T10:33:01.416Z,85.25
2019-01-10T10:34:01.375Z,85.11
2019-01-10T10:35:01.356Z,85.73
2019-01-10T10:36:01.347Z,84.89
2019-01-10T10:37:01.335Z,85.31
2019-01-10T10:38:01.327Z,86.77
2019-01-10T10:39:01.336Z,86.99
2019-01-10T10:40:08.342Z,85.94
2019-01-10T10:41:01.292Z,85.83
2019-01-10T10:42:01.279Z,86.00
2019-01-10T10:43:01.269Z,86.99
2019-01-10T10:44:01.259Z,86.94
2019-01-10T10:45:01.260Z,86.94
2019-01-10T10:46:02.020Z,85.80
2019-01-10T10:47:02.439Z,85.17
2019-01-10T10:48:01.215Z,85.80
2019-01-10T10:49:01.204Z,86.94
2019-01-10T10:50:01.213Z,86.53
2019-01-10T10:51:01.210Z,85.27
2019-01-10T10:52:01.171Z,84.34
2019-01-10T10:53:01.160Z,83.61
2019-01-10T10:54:01.148Z,83.85
2019-01-10T10:55:01.140Z,85.17
2019-01-10T10:56:01.134Z,86.00
2019-01-10T10:57:01.154Z,85.31
2019-01-10T10:58:01.105Z,84.79
2019-01-10T10:59:01.095Z,84.86
2019-01-10T11:00:01.082Z,84.55
2019-01-10T11:01:01.082Z,85.90
2019-01-10T11:02:01.066Z,85.38
2019-01-10T11:03:01.088Z,85.80
2019-01-10T11:04:01.038Z,85.49
2019-01-10T11:05:01.028Z,84.44
2019-01-10T11:06:01.018Z,83.81
2019-01-10T11:07:01.006Z,83.61
2019-01-10T11:08:00.997Z,84.23
2019-01-10T11:09:09.096Z,83.71
2019-01-10T11:10:01.984Z,82.77
2019-01-10T11:11:00.961Z,83.92
2019-01-10T11:12:00.951Z,85.27
2019-01-10T11:13:00.942Z,85.59
2019-01-10T11:14:00.935Z,85.97
2019-01-10T11:15:00.934Z,85.24
2019-01-10T11:16:00.931Z,85.76
2019-01-10T11:17:00.898Z,85.13
2019-01-10T11:18:00.887Z,84.19
2019-01-10T11:19:00.875Z,84.40
2019-01-10T11:20:00.866Z,84.30
2019-01-10T11:21:00.861Z,84.50
2019-01-10T11:22:00.864Z,85.13
2019-01-10T11:23:10.150Z,85.97
2019-01-10T11:24:01.818Z,84.57
2019-01-10T11:25:00.807Z,84.36
2019-01-10T11:26:00.798Z,82.70
2019-01-10T11:27:00.789Z,81.06
2019-01-10T11:28:00.806Z,80.13
2019-01-10T11:29:00.764Z,80.65
2019-01-10T11:30:00.753Z,81.69
2019-01-10T11:31:00.741Z,83.15
2019-01-10T11:32:00.733Z,83.78
2019-01-10T11:33:00.724Z,83.22
2019-01-10T11:34:00.726Z,83.47
2019-01-10T11:35:00.700Z,82.00
2019-01-10T11:36:00.689Z,83.11
2019-01-10T11:37:00.678Z,83.63
2019-01-10T11:38:00.667Z,80.02
2019-01-10T11:39:00.697Z,77.10
2019-01-10T11:40:00.659Z,76.47
2019-01-10T11:41:00.635Z,77.20
2019-01-10T11:42:00.622Z,77.31
2019-01-10T11:43:00.613Z,77.62
2019-01-10T11:44:00.603Z,78.66
2019-01-10T11:45:00.615Z,78.77
2019-01-10T11:46:00.585Z,80.02
2019-01-10T11:47:00.569Z,80.61
2019-01-10T11:48:00.556Z,79.25
2019-01-10T11:49:00.546Z,79.46
2019-01-10T11:50:00.535Z,77.06
2019-01-10T11:51:00.560Z,76.86
2019-01-10T11:52:00.528Z,76.68
2019-01-10T11:53:00.502Z,77.20
2019-01-10T11:54:00.491Z,76.89
2019-01-10T11:55:00.480Z,79.50
2019-01-10T11:56:00.472Z,80.23
2019-01-10T11:57:00.490Z,77.90
2019-01-10T11:58:00.453Z,78.52
2019-01-10T11:59:00.437Z,80.33
2019-01-10T12:00:00.426Z,81.13
2019-01-10T12:01:00.413Z,79.67
2019-01-10T12:02:00.405Z,77.69
2019-01-10T12:03:00.406Z,77.72
2019-01-10T12:04:00.387Z,77.06
2019-01-10T12:05:00.482Z,77.72
2019-01-10T12:06:00.362Z,77.10
2019-01-10T12:07:00.350Z,76.89
2019-01-10T12:08:00.352Z,79.19
2019-01-10T12:09:00.342Z,78.97
2019-01-10T12:10:00.324Z,79.50
2019-01-10T12:11:00.308Z,79.71
2019-01-10T12:12:00.299Z,78.66
2019-01-10T12:13:00.284Z,78.56
2019-01-10T12:14:00.286Z,79.08
2019-01-10T12:15:00.261Z,78.66
2019-01-10T12:16:00.264Z,78.66
2019-01-10T12:17:00.246Z,77.94
2019-01-10T12:18:00.230Z,76.68
2019-01-10T12:19:00.247Z,78.35
2019-01-10T12:20:00.206Z,77.72
2019-01-10T12:21:00.197Z,77.94
2019-01-10T12:22:00.188Z,77.41
2019-01-10T12:23:00.182Z,78.66
2019-01-10T12:24:00.169Z,80.96
2019-01-10T12:25:00.195Z,79.60
2019-01-10T12:26:00.145Z,78.97
2019-01-10T12:27:00.133Z,77.72
2019-01-10T12:28:00.121Z,78.04
2019-01-10T12:29:00.113Z,78.25
2019-01-10T12:30:00.177Z,79.08
2019-01-10T12:31:00.123Z,77.20
2019-01-10T12:32:00.076Z,77.94
2019-01-10T12:33:00.062Z,77.72
2019-01-10T12:34:00.054Z,79.39
2019-01-10T12:35:00.053Z,79.08
2019-01-10T12:36:00.039Z,79.81
2019-01-10T12:37:00.618Z,77.62
2019-01-10T12:38:00.009Z,77.51
2019-01-10T12:38:59.997Z,76.68
2019-01-10T12:39:59.987Z,76.79
2019-01-10T12:40:59.978Z,79.50
2019-01-10T12:41:59.990Z,80.33
2019-01-10T12:42:59.955Z,79.39
2019-01-10T12:43:59.945Z,79.08
2019-01-10T12:44:59.936Z,78.14
2019-01-10T12:45:59.937Z,76.47
2019-01-10T12:46:59.922Z,76.47
2019-01-10T12:48:01.641Z,77.62
2019-01-10T12:48:59.888Z,77.10
2019-01-10T12:49:59.877Z,77.83
2019-01-10T12:50:59.868Z,78.25
2019-01-10T12:51:59.869Z,77.10
2019-01-10T12:52:59.878Z,77.62
2019-01-10T12:53:59.846Z,76.86
2019-01-10T12:54:59.824Z,77.31
2019-01-10T12:55:59.812Z,78.35
2019-01-10T12:56:59.801Z,80.02
2019-01-10T12:57:59.791Z,77.83
2019-01-10T12:58:59.815Z,77.83
2019-01-10T12:59:59.772Z,78.04
2019-01-10T13:00:59.757Z,78.66
2019-01-10T13:01:59.841Z,77.20
2019-01-10T13:02:59.734Z,77.10
2019-01-10T13:03:59.726Z,77.94
2019-01-10T13:04:59.727Z,78.87